sensor_id;sensor_type;location;lat;lon;timestamp;pressure;altitude;pressure_sealevel;temperature;humidity
12471;BME280;36499;46.484;13.832;2022-10-20T00:01:13;93842.88;;;15.46;82.41
12471;BME280;36499;46.484;13.832;2022-10-20T00:03:42;93846.75;;;15.43;82.61
12471;BME280;36499;46.484;13.832;2022-10-20T00:06:14;93841.34;;;15.38;82.90
12471;BME280;36499;46.484;13.832;2022-10-20T00:08:45;93849.94;;;15.45;82.34
12471;BME280;36499;46.484;13.832;2022-10-20T00:11:16;93853.63;;;15.44;82.39
12471;BME280;36499;46.484;13.832;2022-10-20T00:13:46;93855.09;;;15.40;82.79
12471;BME280;36499;46.484;13.832;2022-10-20T00:16:15;93844.78;;;15.38;83.13
12471;BME280;36499;46.484;13.832;2022-10-20T00:18:43;93847.28;;;15.33;83.40
12471;BME280;36499;46.484;13.832;2022-10-20T00:21:15;93849.59;;;15.42;82.58
12471;BME280;36499;46.484;13.832;2022-10-20T00:23:45;93845.00;;;15.37;83.66
12471;BME280;36499;46.484;13.832;2022-10-20T00:26:19;93843.72;;;15.28;83.82
12471;BME280;36499;46.484;13.832;2022-10-20T00:28:48;93841.59;;;15.36;83.11
12471;BME280;36499;46.484;13.832;2022-10-20T00:31:18;93842.00;;;15.33;83.59
12471;BME280;36499;46.484;13.832;2022-10-20T00:33:46;93836.94;;;15.20;84.30
12471;BME280;36499;46.484;13.832;2022-10-20T00:36:19;93840.84;;;15.29;84.03
12471;BME280;36499;46.484;13.832;2022-10-20T00:38:48;93835.47;;;15.24;84.58
12471;BME280;36499;46.484;13.832;2022-10-20T00:41:18;93832.41;;;15.27;84.41
12471;BME280;36499;46.484;13.832;2022-10-20T00:43:50;93832.84;;;15.24;84.50
12471;BME280;36499;46.484;13.832;2022-10-20T00:46:26;93831.47;;;15.22;84.64
12471;BME280;36499;46.484;13.832;2022-10-20T00:48:59;93832.25;;;15.22;84.36
12471;BME280;36499;46.484;13.832;2022-10-20T00:51:33;93827.00;;;15.22;84.18
12471;BME280;36499;46.484;13.832;2022-10-20T00:54:07;93827.16;;;15.27;84.12
12471;BME280;36499;46.484;13.832;2022-10-20T00:56:38;93824.16;;;15.24;84.13
12471;BME280;36499;46.484;13.832;2022-10-20T00:59:09;93817.53;;;15.21;84.47
12471;BME280;36499;46.484;13.832;2022-10-20T01:01:40;93823.56;;;15.22;84.36
12471;BME280;36499;46.484;13.832;2022-10-20T01:04:09;93820.19;;;15.21;84.27
12471;BME280;36499;46.484;13.832;2022-10-20T01:06:38;93820.38;;;15.20;84.58
12471;BME280;36499;46.484;13.832;2022-10-20T01:09:06;93818.31;;;15.22;84.22
12471;BME280;36499;46.484;13.832;2022-10-20T01:11:44;93818.78;;;15.19;84.44
12471;BME280;36499;46.484;13.832;2022-10-20T01:14:32;93827.47;;;15.19;84.21
12471;BME280;36499;46.484;13.832;2022-10-20T01:17:17;93827.75;;;15.11;85.00
12471;BME280;36499;46.484;13.832;2022-10-20T01:20:26;93823.16;;;15.07;84.98
12471;BME280;36499;46.484;13.832;2022-10-20T01:24:02;93818.97;;;15.06;85.58
12471;BME280;36499;46.484;13.832;2022-10-20T01:27:19;93814.06;;;15.09;84.84
12471;BME280;36499;46.484;13.832;2022-10-20T01:29:58;93818.72;;;15.07;85.21
12471;BME280;36499;46.484;13.832;2022-10-20T01:32:39;93812.25;;;15.10;84.98
12471;BME280;36499;46.484;13.832;2022-10-20T01:35:16;93811.19;;;15.11;85.00
12471;BME280;36499;46.484;13.832;2022-10-20T01:37:57;93809.41;;;14.93;86.14
12471;BME280;36499;46.484;13.832;2022-10-20T01:40:32;93807.16;;;14.97;86.25
12471;BME280;36499;46.484;13.832;2022-10-20T01:43:07;93811.75;;;15.01;85.34
12471;BME280;36499;46.484;13.832;2022-10-20T01:45:42;93807.94;;;14.97;85.95
12471;BME280;36499;46.484;13.832;2022-10-20T01:48:13;93803.00;;;14.89;86.30
12471;BME280;36499;46.484;13.832;2022-10-20T01:50:44;93807.94;;;14.97;86.16
12471;BME280;36499;46.484;13.832;2022-10-20T01:53:13;93813.19;;;14.97;85.79
12471;BME280;36499;46.484;13.832;2022-10-20T01:55:40;93804.88;;;15.00;85.53
12471;BME280;36499;46.484;13.832;2022-10-20T02:01:28;93801.31;;;14.95;85.83
12471;BME280;36499;46.484;13.832;2022-10-20T02:04:06;93815.03;;;14.97;85.41
12471;BME280;36499;46.484;13.832;2022-10-20T02:06:43;93814.81;;;14.98;85.58
12471;BME280;36499;46.484;13.832;2022-10-20T02:09:21;93813.78;;;14.99;85.58
12471;BME280;36499;46.484;13.832;2022-10-20T02:12:00;93815.16;;;15.02;85.64
12471;BME280;36499;46.484;13.832;2022-10-20T02:14:34;93815.38;;;15.00;85.39
12471;BME280;36499;46.484;13.832;2022-10-20T02:17:06;93814.38;;;15.01;85.38
12471;BME280;36499;46.484;13.832;2022-10-20T02:19:40;93818.59;;;15.02;85.28
12471;BME280;36499;46.484;13.832;2022-10-20T02:22:11;93805.31;;;14.97;85.59
12471;BME280;36499;46.484;13.832;2022-10-20T02:24:43;93802.41;;;15.05;85.12
12471;BME280;36499;46.484;13.832;2022-10-20T02:27:15;93800.44;;;15.01;85.42
12471;BME280;36499;46.484;13.832;2022-10-20T02:29:49;93797.16;;;15.05;85.04
12471;BME280;36499;46.484;13.832;2022-10-20T02:32:20;93799.78;;;15.05;85.11
12471;BME280;36499;46.484;13.832;2022-10-20T02:34:48;93792.69;;;15.06;85.20
12471;BME280;36499;46.484;13.832;2022-10-20T02:37:15;93791.88;;;15.05;85.30
12471;BME280;36499;46.484;13.832;2022-10-20T02:39:43;93791.44;;;15.08;84.78
12471;BME280;36499;46.484;13.832;2022-10-20T02:42:10;93794.16;;;15.02;85.20
12471;BME280;36499;46.484;13.832;2022-10-20T02:44:37;93782.84;;;15.01;84.79
12471;BME280;36499;46.484;13.832;2022-10-20T02:47:05;93787.09;;;15.02;84.59
12471;BME280;36499;46.484;13.832;2022-10-20T02:49:33;93789.56;;;14.97;85.23
12471;BME280;36499;46.484;13.832;2022-10-20T02:52:00;93799.06;;;14.98;84.82
12471;BME280;36499;46.484;13.832;2022-10-20T02:54:28;93797.81;;;15.01;84.99
12471;BME280;36499;46.484;13.832;2022-10-20T02:56:55;93792.19;;;14.97;85.33
12471;BME280;36499;46.484;13.832;2022-10-20T02:59:22;93795.38;;;14.87;85.95
12471;BME280;36499;46.484;13.832;2022-10-20T03:01:49;93796.72;;;14.90;85.55
12471;BME280;36499;46.484;13.832;2022-10-20T03:04:19;93802.34;;;14.94;85.03
12471;BME280;36499;46.484;13.832;2022-10-20T03:06:47;93796.63;;;14.97;84.98
12471;BME280;36499;46.484;13.832;2022-10-20T03:09:14;93793.00;;;14.98;84.98
12471;BME280;36499;46.484;13.832;2022-10-20T03:11:41;93792.75;;;14.99;84.57
12471;BME280;36499;46.484;13.832;2022-10-20T03:14:10;93798.81;;;15.00;84.17
12471;BME280;36499;46.484;13.832;2022-10-20T03:16:41;93795.84;;;14.96;84.65
12471;BME280;36499;46.484;13.832;2022-10-20T03:19:09;93806.22;;;14.91;84.91
12471;BME280;36499;46.484;13.832;2022-10-20T03:21:41;93803.72;;;14.96;84.26
12471;BME280;36499;46.484;13.832;2022-10-20T03:24:10;93807.38;;;14.95;83.75
12471;BME280;36499;46.484;13.832;2022-10-20T03:26:38;93800.88;;;14.98;84.12
12471;BME280;36499;46.484;13.832;2022-10-20T03:29:05;93811.59;;;14.96;84.44
12471;BME280;36499;46.484;13.832;2022-10-20T03:31:33;93815.03;;;14.97;84.11
12471;BME280;36499;46.484;13.832;2022-10-20T03:34:00;93811.59;;;14.96;84.13
12471;BME280;36499;46.484;13.832;2022-10-20T03:36:27;93810.00;;;14.95;84.38
12471;BME280;36499;46.484;13.832;2022-10-20T03:38:55;93804.97;;;14.94;84.13
12471;BME280;36499;46.484;13.832;2022-10-20T03:41:22;93806.22;;;14.91;84.34
12471;BME280;36499;46.484;13.832;2022-10-20T03:43:51;93800.97;;;14.91;84.23
12471;BME280;36499;46.484;13.832;2022-10-20T03:46:19;93809.88;;;14.90;84.41
12471;BME280;36499;46.484;13.832;2022-10-20T03:48:46;93807.09;;;14.85;84.83
12471;BME280;36499;46.484;13.832;2022-10-20T03:51:14;93813.94;;;14.86;84.82
12471;BME280;36499;46.484;13.832;2022-10-20T03:53:42;93812.13;;;14.86;84.82
12471;BME280;36499;46.484;13.832;2022-10-20T03:56:18;93813.16;;;14.85;85.08
12471;BME280;36499;46.484;13.832;2022-10-20T03:58:47;93810.66;;;14.72;85.52
12471;BME280;36499;46.484;13.832;2022-10-20T04:01:20;93814.16;;;14.84;85.52
12471;BME280;36499;46.484;13.832;2022-10-20T04:03:50;93817.22;;;14.81;85.64
12471;BME280;36499;46.484;13.832;2022-10-20T04:06:18;93815.41;;;14.82;86.00
12471;BME280;36499;46.484;13.832;2022-10-20T04:08:45;93807.16;;;14.78;86.00
12471;BME280;36499;46.484;13.832;2022-10-20T04:11:15;93816.88;;;14.78;85.67
12471;BME280;36499;46.484;13.832;2022-10-20T04:13:45;93814.81;;;14.80;85.71
12471;BME280;36499;46.484;13.832;2022-10-20T04:16:12;93807.97;;;14.79;86.06
12471;BME280;36499;46.484;13.832;2022-10-20T04:18:40;93820.94;;;14.74;86.07
12471;BME280;36499;46.484;13.832;2022-10-20T04:21:07;93813.88;;;14.74;85.86
12471;BME280;36499;46.484;13.832;2022-10-20T04:23:34;93820.78;;;14.69;86.20
12471;BME280;36499;46.484;13.832;2022-10-20T04:26:08;93813.53;;;14.53;86.75
12471;BME280;36499;46.484;13.832;2022-10-20T04:28:36;93814.91;;;14.55;86.78
12471;BME280;36499;46.484;13.832;2022-10-20T04:31:05;93810.03;;;14.59;86.55
12471;BME280;36499;46.484;13.832;2022-10-20T04:33:34;93807.41;;;14.59;86.31
12471;BME280;36499;46.484;13.832;2022-10-20T04:36:05;93804.25;;;14.50;86.46
12471;BME280;36499;46.484;13.832;2022-10-20T04:38:34;93798.28;;;14.43;86.86
12471;BME280;36499;46.484;13.832;2022-10-20T04:41:06;93802.66;;;14.49;86.37
12471;BME280;36499;46.484;13.832;2022-10-20T04:43:35;93790.03;;;14.39;85.98
12471;BME280;36499;46.484;13.832;2022-10-20T04:46:05;93790.91;;;14.33;85.55
12471;BME280;36499;46.484;13.832;2022-10-20T04:48:33;93799.13;;;14.19;85.95
12471;BME280;36499;46.484;13.832;2022-10-20T04:51:03;93798.97;;;14.14;85.69
12471;BME280;36499;46.484;13.832;2022-10-20T04:53:31;93792.72;;;13.90;86.88
12471;BME280;36499;46.484;13.832;2022-10-20T04:55:58;93801.81;;;13.87;86.57
12471;BME280;36499;46.484;13.832;2022-10-20T04:58:27;93809.41;;;13.71;87.06
12471;BME280;36499;46.484;13.832;2022-10-20T05:01:03;93802.03;;;13.61;87.35
12471;BME280;36499;46.484;13.832;2022-10-20T05:03:32;93808.91;;;13.56;87.36
12471;BME280;36499;46.484;13.832;2022-10-20T05:06:13;93803.47;;;13.57;87.39
12471;BME280;36499;46.484;13.832;2022-10-20T05:08:43;93804.09;;;13.53;87.74
12471;BME280;36499;46.484;13.832;2022-10-20T05:11:13;93805.34;;;13.50;87.79
12471;BME280;36499;46.484;13.832;2022-10-20T05:13:41;93804.09;;;13.53;87.52
12471;BME280;36499;46.484;13.832;2022-10-20T05:16:11;93804.69;;;13.55;87.26
12471;BME280;36499;46.484;13.832;2022-10-20T05:18:39;93813.41;;;13.49;87.04
12471;BME280;36499;46.484;13.832;2022-10-20T05:21:08;93815.22;;;13.48;87.08
12471;BME280;36499;46.484;13.832;2022-10-20T05:23:36;93811.41;;;13.44;87.24
12471;BME280;36499;46.484;13.832;2022-10-20T05:26:08;93818.69;;;13.42;87.28
12471;BME280;36499;46.484;13.832;2022-10-20T05:28:35;93825.75;;;13.41;87.48
12471;BME280;36499;46.484;13.832;2022-10-20T05:31:07;93823.38;;;13.33;87.64
12471;BME280;36499;46.484;13.832;2022-10-20T05:33:37;93823.13;;;13.41;87.12
12471;BME280;36499;46.484;13.832;2022-10-20T05:36:09;93829.38;;;13.40;86.92
12471;BME280;36499;46.484;13.832;2022-10-20T05:38:38;93835.03;;;13.37;87.09
12471;BME280;36499;46.484;13.832;2022-10-20T05:41:07;93840.00;;;13.14;87.38
12471;BME280;36499;46.484;13.832;2022-10-20T05:43:35;93833.50;;;13.23;87.00
12471;BME280;36499;46.484;13.832;2022-10-20T05:46:03;93846.19;;;13.26;86.89
12471;BME280;36499;46.484;13.832;2022-10-20T05:48:31;93851.22;;;13.21;87.07
12471;BME280;36499;46.484;13.832;2022-10-20T05:51:09;93854.28;;;13.18;87.06
12471;BME280;36499;46.484;13.832;2022-10-20T05:53:36;93859.28;;;13.26;86.75
12471;BME280;36499;46.484;13.832;2022-10-20T05:56:06;93862.31;;;13.23;86.62
12471;BME280;36499;46.484;13.832;2022-10-20T05:58:34;93865.16;;;13.15;86.68
12471;BME280;36499;46.484;13.832;2022-10-20T06:01:06;93871.84;;;13.11;86.41
12471;BME280;36499;46.484;13.832;2022-10-20T06:03:34;93871.59;;;13.19;86.44
12471;BME280;36499;46.484;13.832;2022-10-20T06:06:03;93865.16;;;13.15;86.09
12471;BME280;36499;46.484;13.832;2022-10-20T06:08:33;93880.47;;;13.18;86.17
12471;BME280;36499;46.484;13.832;2022-10-20T06:11:06;93874.66;;;13.16;86.08
12471;BME280;36499;46.484;13.832;2022-10-20T06:13:34;93885.31;;;13.15;86.88
12471;BME280;36499;46.484;13.832;2022-10-20T06:16:03;93886.31;;;13.07;86.28
12471;BME280;36499;46.484;13.832;2022-10-20T06:18:30;93896.19;;;13.05;86.83
12471;BME280;36499;46.484;13.832;2022-10-20T06:21:00;93891.75;;;13.06;86.72
12471;BME280;36499;46.484;13.832;2022-10-20T06:23:28;93892.13;;;13.09;86.57
12471;BME280;36499;46.484;13.832;2022-10-20T06:26:01;93886.53;;;13.12;86.67
12471;BME280;36499;46.484;13.832;2022-10-20T06:28:30;93893.78;;;13.10;86.36
12471;BME280;36499;46.484;13.832;2022-10-20T06:30:58;93884.28;;;13.09;86.46
12471;BME280;36499;46.484;13.832;2022-10-20T06:33:29;93891.78;;;13.12;86.23
12471;BME280;36499;46.484;13.832;2022-10-20T06:35:58;93893.78;;;13.04;86.14
12471;BME280;36499;46.484;13.832;2022-10-20T06:38:28;93893.16;;;13.08;86.21
12471;BME280;36499;46.484;13.832;2022-10-20T06:41:00;93897.00;;;13.12;85.58
12471;BME280;36499;46.484;13.832;2022-10-20T06:43:28;93900.81;;;13.10;85.99
12471;BME280;36499;46.484;13.832;2022-10-20T06:45:56;93906.06;;;13.03;86.33
12471;BME280;36499;46.484;13.832;2022-10-20T06:48:25;93896.81;;;13.01;86.05
12471;BME280;36499;46.484;13.832;2022-10-20T06:50:56;93900.06;;;12.96;85.96
12471;BME280;36499;46.484;13.832;2022-10-20T06:53:23;93906.09;;;12.90;86.55
12471;BME280;36499;46.484;13.832;2022-10-20T06:56:01;93912.75;;;12.86;86.75
12471;BME280;36499;46.484;13.832;2022-10-20T06:58:29;93921.44;;;12.80;86.92
12471;BME280;36499;46.484;13.832;2022-10-20T07:01:00;93919.00;;;12.78;87.00
12471;BME280;36499;46.484;13.832;2022-10-20T07:03:28;93919.00;;;12.85;86.90
12471;BME280;36499;46.484;13.832;2022-10-20T07:05:56;93924.44;;;12.83;86.60
12471;BME280;36499;46.484;13.832;2022-10-20T07:08:26;93926.88;;;12.85;86.22
12471;BME280;36499;46.484;13.832;2022-10-20T07:11:01;93923.06;;;12.81;85.96
12471;BME280;36499;46.484;13.832;2022-10-20T07:13:33;93920.03;;;12.84;85.81
12471;BME280;36499;46.484;13.832;2022-10-20T07:16:01;93918.44;;;12.76;85.91
12471;BME280;36499;46.484;13.832;2022-10-20T07:18:30;93918.81;;;12.80;86.05
12471;BME280;36499;46.484;13.832;2022-10-20T07:20:59;93912.59;;;12.81;86.37
12471;BME280;36499;46.484;13.832;2022-10-20T07:23:29;93916.00;;;12.75;86.87
12471;BME280;36499;46.484;13.832;2022-10-20T07:26:02;93908.19;;;12.68;86.79
12471;BME280;36499;46.484;13.832;2022-10-20T07:28:29;93915.41;;;12.73;86.55
12471;BME280;36499;46.484;13.832;2022-10-20T07:31:01;93916.59;;;12.83;86.13
12471;BME280;36499;46.484;13.832;2022-10-20T07:33:29;93910.34;;;12.84;86.54
12471;BME280;36499;46.484;13.832;2022-10-20T07:35:57;93914.59;;;12.85;86.18
12471;BME280;36499;46.484;13.832;2022-10-20T07:38:25;93913.78;;;12.78;86.83
12471;BME280;36499;46.484;13.832;2022-10-20T07:40:53;93903.56;;;12.64;86.71
12471;BME280;36499;46.484;13.832;2022-10-20T07:43:21;93914.81;;;12.71;86.81
12471;BME280;36499;46.484;13.832;2022-10-20T07:45:48;93910.38;;;12.71;86.46
12471;BME280;36499;46.484;13.832;2022-10-20T07:48:15;93906.38;;;12.69;87.04
12471;BME280;36499;46.484;13.832;2022-10-20T07:50:42;93909.63;;;12.58;87.55
12471;BME280;36499;46.484;13.832;2022-10-20T07:53:09;93904.53;;;12.76;86.97
12471;BME280;36499;46.484;13.832;2022-10-20T07:55:36;93914.41;;;12.74;87.21
12471;BME280;36499;46.484;13.832;2022-10-20T07:58:03;93916.19;;;12.86;86.80
12471;BME280;36499;46.484;13.832;2022-10-20T08:00:32;93910.16;;;12.79;87.05
12471;BME280;36499;46.484;13.832;2022-10-20T08:02:59;93908.13;;;12.88;86.26
12471;BME280;36499;46.484;13.832;2022-10-20T08:05:26;93906.09;;;12.90;86.15
12471;BME280;36499;46.484;13.832;2022-10-20T08:07:54;93914.56;;;12.92;85.80
12471;BME280;36499;46.484;13.832;2022-10-20T08:10:21;93908.91;;;12.95;85.77
12471;BME280;36499;46.484;13.832;2022-10-20T08:12:48;93906.53;;;12.87;85.41
12471;BME280;36499;46.484;13.832;2022-10-20T08:15:16;93903.28;;;12.91;85.51
12471;BME280;36499;46.484;13.832;2022-10-20T08:17:44;93907.28;;;12.94;85.02
12471;BME280;36499;46.484;13.832;2022-10-20T08:20:12;93906.91;;;12.97;84.89
12471;BME280;36499;46.484;13.832;2022-10-20T08:22:39;93906.72;;;12.92;84.56
12471;BME280;36499;46.484;13.832;2022-10-20T08:25:09;93905.06;;;12.97;84.99
12471;BME280;36499;46.484;13.832;2022-10-20T08:27:40;93902.28;;;12.92;84.49
12471;BME280;36499;46.484;13.832;2022-10-20T08:30:08;93915.56;;;12.91;84.18
12471;BME280;36499;46.484;13.832;2022-10-20T08:32:36;93917.81;;;12.81;84.85
12471;BME280;36499;46.484;13.832;2022-10-20T08:35:05;93911.56;;;12.88;84.51
12471;BME280;36499;46.484;13.832;2022-10-20T08:37:33;93914.38;;;12.87;84.74
12471;BME280;36499;46.484;13.832;2022-10-20T08:40:02;93913.41;;;12.81;84.13
12471;BME280;36499;46.484;13.832;2022-10-20T08:42:36;93912.75;;;12.92;83.80
12471;BME280;36499;46.484;13.832;2022-10-20T08:45:06;93911.09;;;12.98;83.33
12471;BME280;36499;46.484;13.832;2022-10-20T08:47:36;93908.50;;;12.98;82.85
12471;BME280;36499;46.484;13.832;2022-10-20T08:50:09;93910.31;;;13.04;82.50
12471;BME280;36499;46.484;13.832;2022-10-20T08:52:39;93904.72;;;12.87;82.93
12471;BME280;36499;46.484;13.832;2022-10-20T08:55:20;93897.81;;;12.99;82.71
12471;BME280;36499;46.484;13.832;2022-10-20T08:57:48;93901.63;;;13.04;82.21
12471;BME280;36499;46.484;13.832;2022-10-20T09:00:20;93911.69;;;13.07;82.50
12471;BME280;36499;46.484;13.832;2022-10-20T09:02:49;93909.06;;;13.07;82.35
12471;BME280;36499;46.484;13.832;2022-10-20T09:05:24;93912.31;;;13.09;81.62
12471;BME280;36499;46.484;13.832;2022-10-20T09:07:53;93916.13;;;13.13;82.16
12471;BME280;36499;46.484;13.832;2022-10-20T09:10:30;93916.94;;;13.07;82.55
12471;BME280;36499;46.484;13.832;2022-10-20T09:13:00;93917.16;;;13.12;82.19
12471;BME280;36499;46.484;13.832;2022-10-20T09:15:28;93919.41;;;12.88;82.50
12471;BME280;36499;46.484;13.832;2022-10-20T09:18:00;93921.38;;;12.99;82.46
12471;BME280;36499;46.484;13.832;2022-10-20T09:20:34;93915.41;;;12.73;82.77
12471;BME280;36499;46.484;13.832;2022-10-20T09:23:03;93909.41;;;12.52;83.73
12471;BME280;36499;46.484;13.832;2022-10-20T09:25:30;93913.81;;;12.65;83.64
12471;BME280;36499;46.484;13.832;2022-10-20T09:27:58;93908.19;;;12.62;83.46
12471;BME280;36499;46.484;13.832;2022-10-20T09:30:32;93911.19;;;12.72;83.16
12471;BME280;36499;46.484;13.832;2022-10-20T09:33:19;93910.78;;;12.75;82.84
12471;BME280;36499;46.484;13.832;2022-10-20T09:35:49;93902.56;;;12.65;82.23
12471;BME280;36499;46.484;13.832;2022-10-20T09:38:20;93904.50;;;12.89;81.94
12471;BME280;36499;46.484;13.832;2022-10-20T09:41:05;93901.78;;;12.58;81.85
12471;BME280;36499;46.484;13.832;2022-10-20T09:43:39;93904.75;;;12.81;81.29
12471;BME280;36499;46.484;13.832;2022-10-20T09:46:09;93911.97;;;12.79;81.39
12471;BME280;36499;46.484;13.832;2022-10-20T09:48:40;93909.97;;;12.81;81.83
12471;BME280;36499;46.484;13.832;2022-10-20T09:51:17;93906.78;;;12.66;81.25
12471;BME280;36499;46.484;13.832;2022-10-20T09:53:56;93910.59;;;12.70;81.67
12471;BME280;36499;46.484;13.832;2022-10-20T09:56:27;93903.72;;;12.88;81.36
12471;BME280;36499;46.484;13.832;2022-10-20T09:58:57;93911.69;;;13.07;81.08
12471;BME280;36499;46.484;13.832;2022-10-20T10:01:25;93905.25;;;13.16;80.19
12471;BME280;36499;46.484;13.832;2022-10-20T10:03:55;93899.56;;;13.25;79.56
12471;BME280;36499;46.484;13.832;2022-10-20T10:06:41;93905.22;;;13.09;78.92
12471;BME280;36499;46.484;13.832;2022-10-20T10:09:29;93899.09;;;13.41;79.35
12471;BME280;36499;46.484;13.832;2022-10-20T10:12:03;93900.22;;;13.52;78.18
12471;BME280;36499;46.484;13.832;2022-10-20T10:14:35;93896.97;;;13.57;77.58
12471;BME280;36499;46.484;13.832;2022-10-20T10:17:02;93894.13;;;13.65;77.82
12471;BME280;36499;46.484;13.832;2022-10-20T10:19:32;93891.25;;;13.66;77.31
12471;BME280;36499;46.484;13.832;2022-10-20T10:22:05;93897.41;;;13.54;76.29
12471;BME280;36499;46.484;13.832;2022-10-20T10:24:41;93899.84;;;13.49;76.12
12471;BME280;36499;46.484;13.832;2022-10-20T10:27:21;93891.81;;;13.43;76.76
12471;BME280;36499;46.484;13.832;2022-10-20T10:29:49;93899.09;;;13.41;76.21
12471;BME280;36499;46.484;13.832;2022-10-20T10:32:19;93887.22;;;13.32;76.41
12471;BME280;36499;46.484;13.832;2022-10-20T10:35:11;93887.69;;;13.23;75.85
12471;BME280;36499;46.484;13.832;2022-10-20T10:37:43;93881.53;;;12.91;76.83
12471;BME280;36499;46.484;13.832;2022-10-20T10:40:16;93875.03;;;13.13;76.48
12471;BME280;36499;46.484;13.832;2022-10-20T10:43:18;93870.38;;;13.22;76.95
12471;BME280;36499;46.484;13.832;2022-10-20T10:45:57;93866.53;;;13.24;76.68
12471;BME280;36499;46.484;13.832;2022-10-20T10:49:04;93870.47;;;13.40;75.32
12471;BME280;36499;46.484;13.832;2022-10-20T10:51:49;93868.22;;;13.43;75.34
12471;BME280;36499;46.484;13.832;2022-10-20T10:54:42;93863.06;;;13.68;75.38
12471;BME280;36499;46.484;13.832;2022-10-20T10:57:23;93864.34;;;13.53;75.07
12471;BME280;36499;46.484;13.832;2022-10-20T10:59:54;93864.41;;;13.46;75.24
12471;BME280;36499;46.484;13.832;2022-10-20T11:02:43;93863.94;;;13.56;75.63
12471;BME280;36499;46.484;13.832;2022-10-20T11:05:26;93857.88;;;13.24;75.69
12471;BME280;36499;46.484;13.832;2022-10-20T11:08:12;93857.28;;;13.22;76.23
12471;BME280;36499;46.484;13.832;2022-10-20T11:10:58;93854.47;;;13.17;76.37
12471;BME280;36499;46.484;13.832;2022-10-20T11:13:41;93841.91;;;13.32;75.69
12471;BME280;36499;46.484;13.832;2022-10-20T11:16:28;93830.53;;;13.13;75.59
12471;BME280;36499;46.484;13.832;2022-10-20T11:22:36;93825.81;;;13.28;75.49
12471;BME280;36499;46.484;13.832;2022-10-20T11:25:22;93825.00;;;13.34;75.97
12471;BME280;36499;46.484;13.832;2022-10-20T11:27:55;93830.66;;;13.31;75.58
12471;BME280;36499;46.484;13.832;2022-10-20T11:30:23;93820.31;;;13.36;75.69
12471;BME280;36499;46.484;13.832;2022-10-20T11:32:58;93816.88;;;13.42;75.03
12471;BME280;36499;46.484;13.832;2022-10-20T11:35:33;93816.66;;;13.06;76.20
12471;BME280;36499;46.484;13.832;2022-10-20T11:38:17;93809.69;;;13.31;75.24
12471;BME280;36499;46.484;13.832;2022-10-20T11:40:54;93802.00;;;13.36;74.97
12471;BME280;36499;46.484;13.832;2022-10-20T11:43:34;93803.59;;;13.37;75.08
12471;BME280;36499;46.484;13.832;2022-10-20T11:46:11;93800.81;;;13.32;74.74
12471;BME280;36499;46.484;13.832;2022-10-20T11:48:50;93807.19;;;13.12;75.26
12471;BME280;36499;46.484;13.832;2022-10-20T11:52:09;93801.94;;;13.05;75.56
12471;BME280;36499;46.484;13.832;2022-10-20T11:58:07;93800.66;;;13.27;75.20
12471;BME280;36499;46.484;13.832;2022-10-20T12:04:34;93800.41;;;13.60;73.89
12471;BME280;36499;46.484;13.832;2022-10-20T12:07:40;93800.97;;;13.69;73.32
12471;BME280;36499;46.484;13.832;2022-10-20T12:10:42;93793.72;;;13.39;73.20
12471;BME280;36499;46.484;13.832;2022-10-20T12:13:31;93789.81;;;13.49;73.45
12471;BME280;36499;46.484;13.832;2022-10-20T12:16:04;93792.19;;;13.57;73.22
12471;BME280;36499;46.484;13.832;2022-10-20T12:18:32;93791.06;;;13.46;72.98
12471;BME280;36499;46.484;13.832;2022-10-20T12:21:02;93788.88;;;13.68;73.12
12471;BME280;36499;46.484;13.832;2022-10-20T12:23:58;93786.47;;;13.66;72.97
12471;BME280;36499;46.484;13.832;2022-10-20T12:27:24;93771.22;;;13.81;72.39
12471;BME280;36499;46.484;13.832;2022-10-20T12:33:20;93769.41;;;14.00;71.87
12471;BME280;36499;46.484;13.832;2022-10-20T12:36:28;93763.16;;;14.01;71.53
12471;BME280;36499;46.484;13.832;2022-10-20T12:39:15;93759.91;;;14.06;70.70
12471;BME280;36499;46.484;13.832;2022-10-20T12:41:57;93760.41;;;13.96;71.44
12471;BME280;36499;46.484;13.832;2022-10-20T12:44:40;93764.34;;;14.23;70.97
12471;BME280;36499;46.484;13.832;2022-10-20T12:47:17;93764.88;;;14.32;70.71
12471;BME280;36499;46.484;13.832;2022-10-20T12:49:54;93760.44;;;14.32;70.97
12471;BME280;36499;46.484;13.832;2022-10-20T12:52:28;93758.97;;;14.18;71.08
12471;BME280;36499;46.484;13.832;2022-10-20T12:55:04;93752.91;;;14.00;70.93
12471;BME280;36499;46.484;13.832;2022-10-20T12:57:38;93754.16;;;14.15;71.32
12471;BME280;36499;46.484;13.832;2022-10-20T13:01:07;93748.91;;;14.15;71.83
12471;BME280;36499;46.484;13.832;2022-10-20T13:03:45;93756.00;;;14.33;70.88
12471;BME280;36499;46.484;13.832;2022-10-20T13:06:41;93741.00;;;14.40;70.61
12471;BME280;36499;46.484;13.832;2022-10-20T13:09:19;93732.59;;;14.50;70.36
12471;BME280;36499;46.484;13.832;2022-10-20T13:11:58;93734.88;;;14.46;69.96
12471;BME280;36499;46.484;13.832;2022-10-20T13:17:42;93725.84;;;14.42;70.45
12471;BME280;36499;46.484;13.832;2022-10-20T13:20:26;93719.81;;;14.42;70.39
12471;BME280;36499;46.484;13.832;2022-10-20T13:22:59;93721.53;;;14.48;70.09
12471;BME280;36499;46.484;13.832;2022-10-20T13:25:37;93715.41;;;14.54;69.71
12471;BME280;36499;46.484;13.832;2022-10-20T13:28:17;93716.50;;;14.64;69.99
12471;BME280;36499;46.484;13.832;2022-10-20T13:31:12;93712.22;;;14.52;69.65
12471;BME280;36499;46.484;13.832;2022-10-20T13:33:51;93716.88;;;14.50;69.62
12471;BME280;36499;46.484;13.832;2022-10-20T13:36:44;93726.22;;;14.46;70.21
12471;BME280;36499;46.484;13.832;2022-10-20T13:39:21;93719.13;;;14.46;70.12
12471;BME280;36499;46.484;13.832;2022-10-20T13:42:06;93719.28;;;14.51;70.00
12471;BME280;36499;46.484;13.832;2022-10-20T13:44:51;93714.25;;;14.50;69.53